Flight Track Log - Related Links

Times and Time Zones

All times are in EDT time to prevent confusion due to time zone crossing. See the N413QS flight status page for this flight to view local times or setup timezone preferences in your user account.

Time Position Orientation Groundspeed Altitude Reporting Facility
EDT Latitude Longitude Course Direction KTS MPH feet Rate Location/Type
Sun 01:41:31 PM 41.0833 -73.7667 255° West 196 226 3,700  Level New York TRACON
Sun 01:42:31 PM 41.0667 -73.8500 255° West 256 295 6,200 2,150 Climbing New York TRACON
Sun 01:43:31 PM 40.9833 -73.8500 180° South 289 333 8,000 900 Climbing New York TRACON
Sun 01:44:31 PM 40.9000 -73.8333 171° South 290 334 8,000 750 Level New York TRACON
Sun 01:45:31 PM 40.8333 -73.8167 169° South 294 338 9,500 1,600 Climbing New York TRACON
Sun 01:46:31 PM 40.7333 -73.8000 173° South 330 380 11,200 1,250 Climbing New York TRACON
Sun 01:47:31 PM 40.6500 -73.7667 163° South 319 367 12,000 351 Climbing New York TRACON
Sun 01:49:05 PM 40.5400 -73.6139 133° Southeast 395 455 12,100 1,084 Climbing New York Center
Sun 01:50:06 PM 40.4700 -73.4883 126° Southeast 388 447 14,800 2,034 Climbing New York Center
Sun 01:51:03 PM 40.4097 -73.3878 128° Southeast 393 452 16,100 1,897 Climbing New York Center
Sun 01:52:03 PM 40.3269 -73.2647 131° Southeast 402 463 18,500 2,430 Climbing New York Center
Sun 01:53:04 PM 40.2481 -73.1558 133° Southeast 407 468 21,000 2,410 Climbing New York Center
Sun 01:54:05 PM 40.1650 -73.0417 134° Southeast 412 474 23,400 2,380 Climbing New York Center
Sun 01:55:05 PM 40.0775 -72.9222 134° Southeast 429 494 25,800 2,231 Climbing New York Center
Sun 01:56:06 PM 39.9983 -72.8139 134° Southeast 450 518 27,900 1,932 Climbing New York Center
Sun 01:57:03 PM 39.9086 -72.6869 133° Southeast 461 531 29,600 2,441 Climbing New York Center
Sun 01:58:04 PM 39.8189 -72.5656 134° Southeast 461 531 32,700 2,852 Climbing New York Center
Sun 01:59:05 PM 39.7311 -72.4472 134° Southeast 456 525 35,400 1,916 Climbing New York Center
Sun 02:00:03 PM 39.6450 -72.3344 135° Southeast 451 519 36,500 1,714 Climbing New York Center
Sun 02:01:04 PM 39.5592 -72.2167 133° Southeast 451 519 38,800 1,736 Climbing New York Center
Sun 02:02:04 PM 39.4769 -72.1047 134° Southeast 439 505 40,000 1,041 Climbing New York Center
Sun 02:03:05 PM 39.3928 -71.9903 134° Southeast 439 505 40,900 496 Climbing New York Center
Sun 02:04:05 PM 39.3044 -71.8733 134° Southeast 439 505 41,000 51 Climbing New York Center
Sun 02:05:03 PM 39.2139 -71.7514 134° Southeast 444 511 41,000  Level New York Center
Sun 02:06:05 PM 39.1231 -71.6322 134° Southeast 460 529 41,000  Level New York Center
Sun 02:07:05 PM 39.0322 -71.5161 135° Southeast 460 529 41,000  Level New York Center
Sun 02:08:06 PM 38.9433 -71.3978 134° Southeast 460 529 41,000  Level New York Center
Sun 02:09:06 PM 38.8500 -71.2850 137° Southeast 460 529 41,000  Level New York Center
Sun 02:10:06 PM 38.7650 -71.1644 132° Southeast 460 529 41,000  Level New York Center
Sun 02:11:03 PM 38.6758 -71.0469 134° Southeast 460 529 41,000  Level New York Center
Sun 02:12:03 PM 38.5842 -70.9347 136° Southeast 460 529 41,000  Level New York Center
Sun 02:13:03 PM 38.4967 -70.8125 132° Southeast 455 524 41,000  Level New York Center
Sun 02:14:04 PM 38.4050 -70.7039 137° Southeast 456 525 41,000  Level New York Center
Sun 02:15:05 PM 38.3194 -70.5847 132° Southeast 456 525 41,000  Level New York Center
Sun 02:16:03 PM 38.2297 -70.4764 136° Southeast 449 517 41,000  Level New York Center
Sun 02:17:05 PM 38.1397 -70.3764 139° Southeast 442 509 41,000  Level New York Center
Sun 02:18:05 PM 38.0558 -70.2608 133° Southeast 442 509 41,000  Level New York Center
Sun 02:19:03 PM 37.9781 -70.1322 127° Southeast 442 509 41,000  Level New York Center
Sun 02:21:00 PM 37.8090 -69.9119 133° Southeast  Level FlightAware Approximate
Sun 02:28:00 PM 37.2066 -69.1181 133° Southeast  Level FlightAware Approximate
Sun 02:29:00 PM 37.1202 -69.0057 134° Southeast  Level FlightAware Approximate
Sun 02:30:00 PM 37.0336 -68.8936 134° Southeast  Level FlightAware Approximate
Sun 02:31:00 PM 36.9469 -68.7818 134° Southeast  Level FlightAware Approximate
Sun 02:32:00 PM 36.8605 -68.6697 133° Southeast  Level FlightAware Approximate
Sun 02:33:00 PM 36.7749 -68.5567 133° Southeast  Level FlightAware Approximate
Sun 02:34:00 PM 36.6893 -68.4440 133° Southeast  Level FlightAware Approximate
Sun 02:35:00 PM 36.6035 -68.3315 134° Southeast  Level FlightAware Approximate
Sun 02:36:00 PM 36.5110 -68.2284 142° Southeast  Level FlightAware Approximate
Sun 02:36:48 PM 36.5667 -68.2833 142° Southeast 429 494 41,000  Level New York Oceanic (ODAPS)
Sun 02:37:00 PM 36.4134 -68.1324 142° Southeast  Level FlightAware Approximate
Sun 02:38:00 PM 36.3157 -68.0366 142° Southeast  Level FlightAware Approximate
Sun 02:39:00 PM 36.2179 -67.9410 142° Southeast  Level FlightAware Approximate
Sun 02:40:00 PM 36.1201 -67.8456 142° Southeast  Level FlightAware Approximate
Sun 02:41:00 PM 36.0221 -67.7505 142° Southeast  Level FlightAware Approximate
Sun 02:42:00 PM 35.9241 -67.6557 142° Southeast  Level FlightAware Approximate
Sun 02:43:00 PM 35.7194 -67.4664 142° Southeast 429 494 41,000  Level FlightAware Transoceanic
Sun 02:44:00 PM 35.6249 -67.3767 142° Southeast 429 494 41,000  Level FlightAware Transoceanic
Sun 02:45:00 PM 35.5303 -67.2872 142° Southeast 429 494 41,000  Level FlightAware Transoceanic
Sun 02:46:00 PM 35.4357 -67.1979 142° Southeast 429 494 41,000  Level FlightAware Transoceanic
Sun 02:47:00 PM 35.3410 -67.1089 143° Southeast 429 494 41,000  Level FlightAware Transoceanic
Sun 02:48:00 PM 35.2463 -67.0200 143° Southeast 429 494 41,000  Level FlightAware Transoceanic
Sun 02:49:00 PM 35.1515 -66.9314 143° Southeast 429 494 41,000  Level FlightAware Transoceanic
Sun 02:50:00 PM 35.0566 -66.8429 143° Southeast 429 494 41,000  Level FlightAware Transoceanic
Sun 02:51:00 PM 34.9617 -66.7547 143° Southeast 429 494 41,000  Level FlightAware Transoceanic
Sun 02:52:00 PM 34.8667 -66.6667 159° South 429 494 41,000  Level FlightAware Transoceanic
Sun 02:52:02 PM 34.8667 -66.6667 159° South 456 525 41,000  Level New York Oceanic (ODAPS)
Sun 02:53:00 PM 34.7476 -66.6124 160° South 429 494 41,000  Level FlightAware Transoceanic
Sun 02:54:00 PM 34.6285 -66.5583 160° South 429 494 41,000  Level FlightAware Transoceanic
Sun 02:55:00 PM 34.5094 -66.5043 160° South 429 494 41,000  Level FlightAware Transoceanic
Sun 02:56:00 PM 34.3902 -66.4505 160° South 429 494 41,000  Level FlightAware Transoceanic
Sun 02:57:00 PM 34.2710 -66.3969 160° South 429 494 41,000  Level FlightAware Transoceanic
Sun 02:58:00 PM 34.1518 -66.3434 160° South 456 525 41,000  Level FlightAware Transoceanic
Sun 02:59:00 PM 34.0326 -66.2901 160° South 456 525 41,000  Level FlightAware Transoceanic
Sun 03:00:00 PM 33.9134 -66.2369 160° South 456 525 41,000  Level FlightAware Transoceanic
Sun 03:01:00 PM 33.7941 -66.1838 160° South 456 525 41,000  Level FlightAware Transoceanic
Sun 03:02:00 PM 33.6748 -66.1309 160° South 456 525 41,000  Level FlightAware Transoceanic
Sun 03:03:00 PM 33.5555 -66.0782 160° South 456 525 41,000  Level FlightAware Transoceanic
Sun 03:04:00 PM 33.4362 -66.0256 160° South 456 525 41,000  Level FlightAware Transoceanic
Sun 03:05:00 PM 33.3168 -65.9731 160° South 456 525 41,000  Level FlightAware Transoceanic
Sun 03:06:00 PM 33.1974 -65.9208 160° South 456 525 41,000  Level FlightAware Transoceanic
Sun 03:07:00 PM 33.0780 -65.8686 160° South 456 525 41,000  Level FlightAware Transoceanic
Sun 03:08:00 PM 32.9586 -65.8166 160° South 456 525 41,000  Level FlightAware Transoceanic
Sun 03:09:00 PM 32.8392 -65.7647 160° South 456 525 41,000  Level FlightAware Transoceanic
Sun 03:10:00 PM 32.7197 -65.7129 160° South 456 525 41,000  Level FlightAware Transoceanic
Sun 03:11:00 PM 32.6002 -65.6613 160° South 456 525 41,000  Level FlightAware Transoceanic
Sun 03:12:00 PM 32.4807 -65.6098 160° South 456 525 41,000  Level FlightAware Transoceanic
Sun 03:13:00 PM 32.3612 -65.5585 160° South 456 525 41,000  Level FlightAware Transoceanic
Sun 03:14:00 PM 32.2417 -65.5073 160° South 456 525 41,000  Level FlightAware Transoceanic
Sun 03:15:00 PM 32.1221 -65.4562 160° South 456 525 41,000  Level FlightAware Transoceanic
Sun 03:16:00 PM 32.0025 -65.4053 160° South 456 525 41,000  Level FlightAware Transoceanic
Sun 03:17:00 PM 31.8829 -65.3545 160° South 456 525 41,000  Level FlightAware Transoceanic
Sun 03:18:00 PM 31.7633 -65.3038 160° South 456 525 41,000  Level FlightAware Transoceanic
Sun 03:19:00 PM 31.6436 -65.2533 160° South 456 525 41,000  Level FlightAware Transoceanic
Sun 03:20:00 PM 31.5239 -65.2029 160° South 456 525 41,000  Level FlightAware Transoceanic
Sun 03:21:00 PM 31.4042 -65.1526 160° South 456 525 41,000  Level FlightAware Transoceanic
Sun 03:22:00 PM 31.2845 -65.1024 160° South 456 525 41,000  Level FlightAware Transoceanic
Sun 03:23:00 PM 31.1648 -65.0524 160° South 456 525 41,000  Level FlightAware Transoceanic
Sun 03:24:00 PM 31.0451 -65.0025 160° South 456 525 41,000  Level FlightAware Transoceanic
Sun 03:25:00 PM 30.9253 -64.9527 160° South 456 525 41,000  Level FlightAware Transoceanic
Sun 03:26:00 PM 30.8055 -64.9031 160° South 456 525 41,000  Level FlightAware Transoceanic
Sun 03:27:00 PM 30.6857 -64.8536 160° South 456 525 41,000  Level FlightAware Transoceanic
Sun 03:28:00 PM 30.5659 -64.8042 160° South 456 525 41,000  Level FlightAware Transoceanic
Sun 03:29:00 PM 30.4461 -64.7549 161° South 456 525 41,000  Level FlightAware Transoceanic
Sun 03:30:00 PM 30.3262 -64.7057 161° South 456 525 41,000  Level FlightAware Transoceanic
Sun 03:31:00 PM 30.2063 -64.6567 161° South 456 525 41,000  Level FlightAware Transoceanic
Sun 03:32:00 PM 30.0864 -64.6077 161° South 456 525 41,000  Level FlightAware Transoceanic
Sun 03:33:00 PM 29.9665 -64.5589 161° South 456 525 41,000  Level FlightAware Transoceanic
Sun 03:34:00 PM 29.8466 -64.5102 161° South 456 525 41,000  Level FlightAware Transoceanic
Sun 03:35:00 PM 29.7266 -64.4617 161° South 456 525 41,000  Level FlightAware Transoceanic
Sun 03:36:00 PM 29.6066 -64.4132 161° South 456 525 41,000  Level FlightAware Transoceanic
Sun 03:37:00 PM 29.4867 -64.3649 161° South 456 525 41,000  Level FlightAware Transoceanic
Sun 03:38:00 PM 29.3667 -64.3167 169° South 456 525 41,000  Level FlightAware Transoceanic
Sun 03:39:00 PM 29.2393 -64.2877 169° South 456 525 41,000  Level FlightAware Transoceanic
Sun 03:40:00 PM 29.1118 -64.2588 169° South 456 525 41,000  Level FlightAware Transoceanic
Sun 03:41:00 PM 28.9844 -64.2299 169° South 456 525 41,000  Level FlightAware Transoceanic
Sun 03:42:00 PM 28.8570 -64.2011 169° South 456 525 41,000  Level FlightAware Transoceanic
Sun 03:43:00 PM 28.7295 -64.1724 169° South 456 525 41,000  Level FlightAware Transoceanic
Sun 03:44:00 PM 28.6021 -64.1438 169° South 456 525 41,000  Level FlightAware Transoceanic
Sun 03:45:00 PM 28.4747 -64.1152 169° South 456 525 41,000  Level FlightAware Transoceanic
Sun 03:45:58 PM 29.3667 -64.3167 169° South 466 536 41,000  Level New York Oceanic (ODAPS)
Sun 03:46:00 PM 28.3472 -64.0867 169° South 456 525 41,000  Level FlightAware Transoceanic
Sun 03:47:00 PM 28.2197 -64.0583 169° South 456 525 41,000  Level FlightAware Transoceanic
Sun 03:48:00 PM 28.0923 -64.0300 169° South 456 525 41,000  Level FlightAware Transoceanic
Sun 03:49:00 PM 27.9648 -64.0016 169° South 456 525 41,000  Level FlightAware Transoceanic
Sun 03:50:00 PM 27.8373 -63.9734 169° South 456 525 41,000  Level FlightAware Transoceanic
Sun 03:51:00 PM 27.7099 -63.9453 169° South 456 525 41,000  Level FlightAware Transoceanic
Sun 03:52:00 PM 27.4549 -63.8891 169° South 466 536 41,000  Level FlightAware Transoceanic
Sun 03:53:00 PM 27.3274 -63.8612 169° South 466 536 41,000  Level FlightAware Transoceanic
Sun 03:54:00 PM 27.1999 -63.8333 169° South 466 536 41,000  Level FlightAware Transoceanic
Sun 03:55:00 PM 27.0724 -63.8054 169° South 466 536 41,000  Level FlightAware Transoceanic
Sun 03:56:00 PM 26.9448 -63.7777 169° South 466 536 41,000  Level FlightAware Transoceanic
Sun 03:57:00 PM 26.8173 -63.7500 169° South 466 536 41,000  Level FlightAware Transoceanic
Sun 03:58:00 PM 26.6898 -63.7223 169° South 466 536 41,000  Level FlightAware Transoceanic
Sun 03:59:00 PM 26.5623 -63.6947 169° South 466 536 41,000  Level FlightAware Transoceanic
Sun 04:00:00 PM 26.4347 -63.6672 169° South 466 536 41,000  Level FlightAware Transoceanic
Sun 04:01:00 PM 26.3072 -63.6397 169° South 466 536 41,000  Level FlightAware Transoceanic
Sun 04:02:00 PM 26.1796 -63.6123 169° South 466 536 41,000  Level FlightAware Transoceanic
Sun 04:03:00 PM 26.0521 -63.5850 169° South 466 536 41,000  Level FlightAware Transoceanic
Sun 04:04:00 PM 25.9245 -63.5577 169° South 466 536 41,000  Level FlightAware Transoceanic
Sun 04:05:00 PM 25.7970 -63.5305 169° South 466 536 41,000  Level FlightAware Transoceanic
Sun 04:06:00 PM 25.6694 -63.5033 169° South 466 536 41,000  Level FlightAware Transoceanic
Sun 04:07:00 PM 25.5418 -63.4762 169° South 466 536 41,000  Level FlightAware Transoceanic
Sun 04:08:00 PM 25.4142 -63.4492 169° South 466 536 41,000  Level FlightAware Transoceanic
Sun 04:09:00 PM 25.2867 -63.4222 169° South 466 536 41,000  Level FlightAware Transoceanic
Sun 04:10:00 PM 25.1591 -63.3952 169° South 466 536 41,000  Level FlightAware Transoceanic
Sun 04:11:00 PM 25.0315 -63.3683 169° South 466 536 41,000  Level FlightAware Transoceanic
Sun 04:12:00 PM 24.9039 -63.3415 169° South 466 536 41,000  Level FlightAware Transoceanic
Sun 04:13:00 PM 24.7763 -63.3147 169° South 466 536 41,000  Level FlightAware Transoceanic
Sun 04:14:00 PM 24.6487 -63.2880 169° South 466 536 41,000  Level FlightAware Transoceanic
Sun 04:15:00 PM 24.5211 -63.2614 169° South 466 536 41,000  Level FlightAware Transoceanic
Sun 04:16:00 PM 24.3934 -63.2348 169° South 466 536 41,000  Level FlightAware Transoceanic
Sun 04:17:00 PM 24.2658 -63.2082 169° South 466 536 41,000  Level FlightAware Transoceanic
Sun 04:18:00 PM 24.1382 -63.1817 169° South 466 536 41,000  Level FlightAware Transoceanic
Sun 04:19:00 PM 24.0106 -63.1553 169° South 466 536 41,000  Level FlightAware Transoceanic
Sun 04:20:00 PM 23.8829 -63.1289 169° South 466 536 41,000  Level FlightAware Transoceanic
Sun 04:21:00 PM 23.7553 -63.1025 169° South 466 536 41,000  Level FlightAware Transoceanic
Sun 04:22:00 PM 23.6276 -63.0762 169° South 466 536 41,000  Level FlightAware Transoceanic
Sun 04:23:00 PM 23.5000 -63.0500 169° South 466 536 41,000  Level FlightAware Transoceanic
Sun 04:24:00 PM 23.3711 -63.0234 169° South 466 536 41,000  Level FlightAware Transoceanic
Sun 04:25:00 PM 23.2421 -62.9968 169° South 466 536 41,000  Level FlightAware Transoceanic
Sun 04:26:00 PM 23.1132 -62.9703 169° South 466 536 41,000  Level FlightAware Transoceanic
Sun 04:27:00 PM 22.9842 -62.9438 169° South 466 536 41,000  Level FlightAware Transoceanic
Sun 04:27:25 PM 23.5000 -63.0500 169° South 490 564 41,000  Level New York Oceanic (ODAPS)
Sun 04:28:00 PM 22.8553 -62.9174 169° South 466 536 41,000  Level FlightAware Transoceanic
Sun 04:29:00 PM 22.7263 -62.8910 169° South 466 536 41,000  Level FlightAware Transoceanic
Sun 04:30:00 PM 22.5973 -62.8647 169° South 466 536 41,000  Level FlightAware Transoceanic
Sun 04:31:00 PM 22.4684 -62.8384 169° South 466 536 41,000  Level FlightAware Transoceanic
Sun 04:32:00 PM 22.3394 -62.8122 169° South 466 536 41,000  Level FlightAware Transoceanic
Sun 04:33:00 PM 22.0169 -62.7469 169° South 490 564 41,000  Level FlightAware Transoceanic
Sun 04:34:00 PM 21.8821 -62.7196 169° South 490 564 41,000  Level FlightAware Transoceanic
Sun 04:35:00 PM 21.7472 -62.6924 169° South 490 564 41,000  Level FlightAware Transoceanic
Sun 04:36:00 PM 21.6124 -62.6653 169° South 490 564 41,000  Level FlightAware Transoceanic
Sun 04:37:00 PM 21.4775 -62.6382 169° South 490 564 41,000  Level FlightAware Transoceanic
Sun 04:38:00 PM 21.3426 -62.6112 169° South 490 564 41,000  Level FlightAware Transoceanic
Sun 04:39:00 PM 21.2078 -62.5842 169° South 490 564 41,000  Level FlightAware Transoceanic
Sun 04:40:00 PM 21.0729 -62.5573 169° South 490 564 41,000  Level FlightAware Transoceanic
Sun 04:41:00 PM 20.9380 -62.5304 169° South 490 564 41,000  Level FlightAware Transoceanic
Sun 04:42:00 PM 20.8031 -62.5035 169° South 490 564 41,000  Level FlightAware Transoceanic
Sun 04:43:00 PM 20.6682 -62.4767 169° South 490 564 41,000  Level FlightAware Transoceanic
Sun 04:44:00 PM 20.5333 -62.4500 170° South 490 564 41,000  Level FlightAware Transoceanic
Sun 04:45:00 PM 20.4000 -62.4242 170° South 490 564 41,000  Level FlightAware Transoceanic
Sun 04:45:44 PM 20.4333 -62.4333 170° South 480 552 41,000  Level San Juan Center
Sun 04:46:00 PM 20.2667 -62.3984 170° South 490 564 41,000  Level FlightAware Transoceanic
Sun 04:46:44 PM 20.3000 -62.4000 167° South 480 552 41,000  Level San Juan Center
Sun 04:47:00 PM 20.1334 -62.3727 170° South 490 564 41,000  Level FlightAware Transoceanic
Sun 04:47:44 PM 20.1667 -62.3833 173° South 470 541 41,000  Level San Juan Center
Sun 04:48:00 PM 20.0001 -62.3470 170° South 490 564 41,000  Level FlightAware Transoceanic
Sun 04:48:45 PM 20.0333 -62.3500 167° South 470 541 41,000  Level San Juan Center
Sun 04:49:00 PM 19.8668 -62.3213 170° South 490 564 41,000  Level FlightAware Transoceanic
Sun 04:49:45 PM 19.9167 -62.3333 172° South 470 541 41,000  Level San Juan Center
Sun 04:50:00 PM 19.7335 -62.2957 170° South 490 564 41,000  Level FlightAware Transoceanic
Sun 04:50:45 PM 19.7833 -62.3000 167° South 480 552 41,000  Level San Juan Center
Sun 04:51:00 PM 19.6001 -62.2702 170° South 490 564 41,000  Level FlightAware Transoceanic
Sun 04:51:45 PM 19.6500 -62.2833 173° South 470 541 41,000  Level San Juan Center
Sun 04:52:46 PM 19.5167 -62.2500 167° South 480 552 41,000  Level San Juan Center
Sun 04:53:46 PM 19.3833 -62.2333 173° South 470 541 41,000  Level San Juan Center
Sun 04:54:46 PM 19.2667 -62.2000 165° South 460 529 41,000  Level San Juan Center
Sun 04:55:47 PM 19.1333 -62.1833 173° South 470 541 41,000  Level San Juan Center
Sun 04:56:47 PM 19.0000 -62.1500 167° South 470 541 41,000  Level San Juan Center
Sun 04:57:47 PM 18.8667 -62.1333 173° South 480 552 41,000  Level San Juan Center
Sun 04:58:48 PM 18.7333 -62.1000 167° South 480 552 41,000  Level San Juan Center
Sun 04:59:48 PM 18.6000 -62.0667 167° South 480 552 41,000  Level San Juan Center
Sun 05:00:48 PM 18.4667 -62.0500 173° South 480 552 41,000  Level San Juan Center
Sun 05:01:49 PM 18.3333 -62.0167 167° South 480 552 41,000  Level San Juan Center
Sun 05:02:49 PM 18.2000 -62.0000 173° South 490 564 41,000  Level San Juan Center
Sun 05:03:49 PM 18.0667 -61.9667 167° South 480 552 41,000  Level San Juan Center
Sun 05:04:50 PM 17.9333 -61.9333 167° South 500 575 41,000  Level San Juan Center
Sun 05:05:50 PM 17.8167 -61.8667 151° Southeast 490 564 41,000  Level San Juan Center
Sun 05:06:50 PM 17.7000 -61.8000 151° Southeast 490 564 41,000  Level San Juan Center
Sun 05:08:00 PM 17.5542 -61.8000 180° South  Level FlightAware Approximate
Sun 05:15:00 PM 16.7330 -61.5665 151° Southeast  Level FlightAware Approximate
Sun 05:16:00 PM 16.6238 -61.5030 151° Southeast  Level FlightAware Approximate
Sun 05:17:00 PM 16.5146 -61.4396 151° Southeast  Level FlightAware Approximate
Sun 05:18:00 PM 16.4053 -61.3762 151° Southeast  Level FlightAware Approximate
Sun 05:19:00 PM 16.2960 -61.3129 151° Southeast  Level FlightAware Approximate
Sun 05:20:00 PM 16.1868 -61.2497 151° Southeast  Level FlightAware Approximate
Sun 05:21:00 PM 16.0775 -61.1866 151° Southeast  Level FlightAware Approximate
Sun 05:22:00 PM 15.9682 -61.1235 151° Southeast  Level FlightAware Approximate
Sun 05:23:00 PM 15.8588 -61.0605 151° Southeast  Level FlightAware Approximate
Sun 05:24:00 PM 15.7494 -60.9976 151° Southeast  Level FlightAware Approximate
Sun 05:25:00 PM 15.6403 -60.9344 150° Southeast  Level FlightAware Approximate
Sun 05:26:00 PM 15.5316 -60.8701 150° Southeast  Level FlightAware Approximate
Sun 05:27:00 PM 15.4230 -60.8059 150° Southeast  Level FlightAware Approximate
Sun 05:28:00 PM 15.3144 -60.7418 150° Southeast  Level FlightAware Approximate
Sun 05:29:00 PM 15.2061 -60.6770 150° Southeast  Level FlightAware Approximate
Sun 05:30:00 PM 15.0959 -60.6163 156° South  Level FlightAware Approximate
Sun 05:31:00 PM 14.9815 -60.5643 156° South  Level FlightAware Approximate
Sun 05:32:00 PM 14.8728 -60.5008 148° Southeast  Level FlightAware Approximate
Sun 05:33:00 PM 14.7663 -60.4331 150° Southeast  Level FlightAware Approximate
Sun 05:34:00 PM 14.6572 -60.3702 154° Southeast  Level FlightAware Approximate
Sun 05:35:00 PM 14.5470 -60.3093 151° Southeast  Level FlightAware Approximate
Sun 05:36:00 PM 14.4381 -60.2458 151° Southeast  Level FlightAware Approximate
Sun 05:37:00 PM 14.3268 -60.1873 152° Southeast  Level FlightAware Approximate
Sun 05:38:00 PM 14.2163 -60.1270 152° Southeast  Level FlightAware Approximate
Sun 05:39:00 PM 14.1067 -60.0650 150° Southeast  Level FlightAware Approximate
Sun 05:40:00 PM 13.9979 -60.0015 150° Southeast  Level FlightAware Approximate
Sun 05:41:00 PM 13.8891 -59.9380 150° Southeast  Level FlightAware Approximate
Sun 05:42:00 PM 13.7803 -59.8746 150° Southeast  Level FlightAware Approximate
Sun 05:43:00 PM 13.6705 -59.8132 152° Southeast  Level FlightAware Approximate
Sun 05:44:00 PM 13.5603 -59.7526 152° Southeast  Level FlightAware Approximate
Sun 05:45:00 PM 13.4498 -59.6923 152° Southeast  Level FlightAware Approximate
Sun 05:46:00 PM 13.3398 -59.6314 152° Southeast  Level FlightAware Approximate
Sun 05:47:00 PM 13.2287 -59.5727 154° Southeast  Level FlightAware Approximate
Sun 05:48:00 PM 13.1205 -59.5103 154° Southeast  Level FlightAware Approximate
Sun 05:49:00 PM 13.0746 -59.4925 90° East  Level Estimated
Sun 05:50:00 PM 13.0746 -59.4925 90° East  Level Estimated
Sun 05:51:00 PM 13.0746 -59.4925 90° East  Level Estimated
Sun 05:52:00 PM 13.0746 -59.4925 90° East  Level Estimated
Sun 05:53:00 PM 13.0746 -59.4925 90° East  Level Estimated
Sun 05:54:00 PM 13.0746 -59.4925 90° East  Level Estimated
Sun 05:55:00 PM 13.0746 -59.4925 90° East  Level Estimated
Sun 05:56:00 PM 13.0746 -59.4925 90° East  Level Estimated
Sun 05:57:00 PM 13.0746 -59.4925 90° East  Level Estimated
Sun 05:58:00 PM 13.0746 -59.4925 90° East  Level Estimated
Sun 05:59:00 PM 13.0746 -59.4925 90° East  Level Estimated
Sun 06:00:00 PM 13.0746 -59.4925 90° East  Level Estimated
Sun 06:01:00 PM 13.0746 -59.4925 90° East  Level Estimated
Sun 06:02:00 PM 13.0746 -59.4925 90° East  Level Estimated
Sun 06:03:00 PM 13.0746 -59.4925 90° East  Level Estimated
Sun 06:04:00 PM 13.0746 -59.4925 90° East  Level Estimated
Sun 06:05:00 PM 13.0746 -59.4925 90° East  Level Estimated
Sun 06:06:00 PM 13.0746 -59.4925 90° East  Level Estimated
Sun 06:07:00 PM 13.0746 -59.4925 90° East  Level Estimated
Sun 06:08:00 PM 13.0746 -59.4925 90° East  Level Estimated
Sun 06:09:00 PM 13.0746 -59.4925 90° East  Level Estimated

Login

Don't have an account? Register now (free) for customized features, flight alerts, and more!